createdAt,value
2014-07-20T07:00:06.098Z,22.7
2014-07-20T07:00:24.285Z,22.7
2014-07-20T07:00:42.490Z,22.7
2014-07-20T07:01:00.678Z,22.7
2014-07-20T07:01:18.881Z,22.7
2014-07-20T07:01:37.068Z,22.7
2014-07-20T07:01:55.274Z,22.7
2014-07-20T07:02:13.461Z,22.7
2014-07-20T07:02:31.664Z,22.7
2014-07-20T09:05:58.749Z,23
2014-07-20T09:06:16.959Z,23
2014-07-20T09:06:35.350Z,23
2014-07-20T09:06:53.538Z,23
2014-07-20T09:07:11.748Z,23
2014-07-20T09:07:29.935Z,23
2014-07-20T09:07:48.138Z,23
2014-07-20T09:08:06.331Z,23.1
2014-07-20T09:08:24.518Z,23.1
2014-07-20T09:08:42.721Z,23.1
2014-07-20T09:09:00.909Z,23.1
2014-07-20T09:09:19.116Z,23.1
2014-07-20T09:09:37.304Z,23.1
2014-07-20T09:09:55.507Z,23.1
2014-07-20T09:10:13.698Z,23.2
2014-07-20T09:10:31.901Z,23.1
2014-07-20T09:10:50.089Z,23.2
2014-07-20T09:11:08.296Z,23.1
2014-07-20T09:11:26.483Z,23.2
2014-07-20T09:11:44.671Z,23.2
2014-07-20T09:12:02.874Z,23.2
2014-07-20T09:12:21.066Z,23.2
2014-07-20T09:12:39.253Z,23.2
2014-07-20T09:12:57.456Z,23.2
2014-07-20T09:13:15.661Z,23.2
2014-07-20T09:13:33.849Z,23.2
2014-07-20T09:13:52.036Z,23.2
2014-07-20T09:14:10.241Z,23.2
2014-07-20T09:14:28.429Z,23.2
2014-07-20T09:14:46.632Z,23.2
2014-07-20T09:15:04.822Z,23.2
2014-07-20T09:15:23.025Z,23.2
2014-07-20T09:15:41.228Z,23.2
2014-07-20T09:15:59.415Z,23.3
2014-07-20T09:16:17.606Z,23.3
2014-07-20T09:16:35.809Z,23.3
2014-07-20T09:16:53.996Z,23.3
2014-07-20T09:17:12.203Z,23.3
2014-07-20T09:17:30.390Z,23.3
2014-07-20T09:17:48.593Z,23.3
2014-07-20T09:18:06.798Z,23.4
2014-07-20T09:18:24.986Z,23.4
2014-07-20T09:18:43.173Z,23.4
2014-07-20T09:19:01.376Z,23.4
2014-07-20T09:19:19.582Z,23.4
2014-07-20T09:19:37.769Z,23.4
2014-07-20T09:19:55.972Z,23.5
2014-07-20T09:20:14.177Z,23.5
2014-07-20T09:20:32.365Z,23.5
2014-07-20T09:20:50.568Z,23.5
2014-07-20T09:21:08.774Z,23.5
2014-07-20T09:21:26.962Z,23.5
2014-07-20T09:21:45.149Z,23.5
2014-07-20T09:22:03.774Z,23.5
2014-07-20T09:22:21.573Z,23.5
2014-07-20T09:22:39.823Z,23.5
2014-07-20T09:22:58.010Z,23.5
2014-07-20T09:23:16.247Z,23.5
2014-07-20T09:23:34.434Z,23.6
2014-07-20T09:23:52.637Z,23.6
2014-07-20T09:24:10.827Z,23.6
2014-07-20T09:24:29.030Z,23.6
2014-07-20T09:24:47.218Z,23.6
2014-07-20T09:25:05.405Z,23.6
2014-07-20T09:25:23.610Z,23.6
2014-07-20T09:25:41.813Z,23.6
2014-07-20T09:26:00.032Z,23.6
2014-07-20T09:26:18.268Z,23.6
2014-07-20T09:26:36.456Z,23.6
2014-07-20T09:26:54.659Z,23.6
2014-07-20T09:27:12.849Z,23.6
2014-07-20T09:27:31.052Z,23.7
2014-07-20T09:27:49.270Z,23.7
2014-07-20T09:28:07.442Z,23.7
2014-07-20T09:28:25.679Z,23.7
2014-07-20T09:28:43.851Z,23.7
2014-07-20T09:29:02.054Z,23.7
2014-07-20T09:29:20.242Z,23.7
2014-07-20T09:29:38.445Z,23.7
2014-07-20T09:29:56.633Z,23.7
2014-07-20T09:30:14.838Z,23.7
2014-07-20T09:30:33.041Z,23.7
2014-07-20T09:30:51.229Z,23.7
2014-07-20T09:31:09.432Z,23.7
2014-07-20T09:31:27.621Z,23.7
2014-07-20T09:31:45.824Z,23.7
2014-07-20T09:32:04.012Z,23.7
2014-07-20T09:32:22.201Z,23.7
2014-07-20T09:32:40.404Z,23.8
2014-07-20T09:32:58.608Z,23.7
2014-07-20T09:33:16.797Z,23.7
2014-07-20T09:33:35.000Z,23.7
2014-07-20T09:33:53.203Z,23.8
2014-07-20T09:34:11.408Z,23.8
2014-07-20T09:34:29.612Z,23.8
2014-07-20T09:34:47.799Z,23.8
2014-07-20T09:35:06.002Z,23.8
2014-07-20T09:35:24.192Z,23.8
2014-07-20T09:35:42.395Z,23.8
2014-07-20T09:36:00.582Z,23.8
2014-07-20T09:36:18.787Z,23.8
2014-07-20T09:36:36.975Z,23.8
2014-07-20T09:36:55.178Z,23.8
2014-07-20T09:37:13.383Z,23.8
2014-07-20T09:37:31.571Z,23.7
2014-07-20T09:37:49.774Z,23.7
2014-07-20T09:38:07.961Z,23.7
2014-07-20T09:38:26.166Z,23.7
2014-07-20T09:38:44.354Z,23.8
2014-07-20T09:39:02.557Z,23.7
2014-07-20T09:39:20.747Z,23.7
2014-07-20T09:39:38.950Z,23.7
2014-07-20T09:39:57.153Z,23.7
2014-07-20T09:40:15.342Z,23.7
2014-07-20T09:40:33.545Z,23.7
2014-07-20T09:40:51.749Z,23.7
2014-07-20T09:41:09.936Z,23.7
2014-07-20T09:41:28.140Z,23.7
2014-07-20T09:58:07.813Z,23.8
2014-07-20T09:58:26.018Z,23.8
2014-07-20T09:58:44.205Z,23.8
2014-07-20T09:59:02.409Z,23.8
2014-07-20T09:59:20.596Z,23.7
2014-07-20T09:59:38.801Z,23.7
2014-07-20T09:59:56.989Z,23.7
2014-07-20T10:00:15.192Z,23.7
2014-07-20T10:00:33.381Z,23.7
2014-07-20T10:00:51.584Z,23.7
2014-07-20T10:01:09.772Z,23.6
2014-07-20T10:01:27.961Z,23.6
2014-07-20T10:01:46.165Z,23.6
2014-07-20T10:02:04.352Z,23.6
2014-07-20T10:02:22.555Z,23.6
2014-07-20T10:02:40.745Z,23.6
2014-07-20T10:02:58.948Z,23.6
2014-07-20T10:03:17.135Z,23.6
2014-07-20T10:03:35.340Z,23.6
2014-07-20T10:03:53.528Z,23.5
2014-07-20T10:04:11.715Z,23.5
2014-07-20T10:04:29.921Z,23.5
2014-07-20T10:04:48.124Z,23.5
2014-07-20T10:05:06.311Z,23.5
2014-07-20T10:05:24.499Z,23.5
2014-07-20T10:05:42.704Z,23.5
2014-07-20T10:06:00.891Z,23.5
2014-07-20T10:06:19.094Z,23.5
2014-07-20T10:06:37.284Z,23.5
2014-07-20T10:06:55.471Z,23.5
2014-07-20T10:07:13.675Z,23.5
2014-07-20T10:07:31.863Z,23.5
2014-07-20T10:07:50.066Z,23.5
2014-07-20T10:08:08.269Z,23.4
2014-07-20T10:08:26.457Z,23.4
2014-07-20T10:08:44.646Z,23.4
2014-07-20T10:09:02.865Z,23.4
2014-07-20T10:09:21.037Z,23.4
2014-07-20T10:09:39.226Z,23.4
2014-07-20T10:09:57.430Z,23.4
2014-07-20T10:10:15.617Z,23.4
2014-07-20T10:10:33.822Z,23.4
2014-07-20T10:10:52.010Z,23.4
2014-07-20T10:11:10.197Z,23.4
2014-07-20T10:11:28.400Z,23.4
2014-07-20T10:11:46.605Z,23.4
2014-07-20T10:12:04.793Z,23.4
2014-07-20T10:12:22.980Z,23.4
2014-07-20T10:12:41.186Z,23.3
2014-07-20T10:12:59.389Z,23.3
2014-07-20T10:13:17.576Z,23.3
2014-07-20T10:13:35.766Z,23.3
2014-07-20T10:13:53.969Z,23.3
2014-07-20T10:14:12.172Z,23.3
2014-07-20T10:14:30.359Z,23.3
2014-07-20T10:14:48.565Z,23.3
2014-07-20T10:15:06.752Z,23.3
2014-07-20T10:15:24.955Z,23.3
2014-07-20T10:15:43.145Z,23.3
2014-07-20T10:16:01.332Z,23.3
2014-07-20T10:16:19.520Z,23.3
2014-07-20T10:16:37.725Z,23.3
2014-07-20T10:16:55.928Z,23.3
2014-07-20T10:17:14.115Z,23.3
2014-07-20T10:17:32.303Z,23.2
2014-07-20T10:17:50.508Z,23.2
2014-07-20T10:18:08.711Z,23.2
2014-07-20T10:18:26.899Z,23.2
2014-07-20T10:18:45.087Z,23.2
2014-07-20T10:19:03.290Z,23.2
2014-07-20T10:19:21.493Z,23.2
2014-07-20T10:19:39.684Z,23.2
2014-07-20T10:19:57.871Z,23.2
2014-07-20T10:20:16.090Z,23.2
2014-07-20T10:20:34.293Z,23.2
2014-07-20T10:20:52.482Z,23.2
2014-07-20T10:21:10.685Z,23.2
2014-07-20T10:21:28.872Z,23.2
2014-07-20T10:21:47.079Z,23.2
2014-07-20T10:22:05.266Z,23.2
2014-07-20T10:22:23.469Z,23.2
2014-07-20T10:22:41.659Z,23.2
2014-07-20T10:22:59.862Z,23.2
2014-07-20T10:23:18.049Z,23.2
2014-07-20T10:23:36.237Z,23.2
2014-07-20T10:23:54.441Z,23.2
2014-07-20T10:24:12.644Z,23.3
2014-07-20T10:24:30.832Z,23.2
2014-07-20T10:24:49.037Z,23.2
2014-07-20T10:25:07.224Z,23.2
2014-07-20T10:25:25.427Z,23.3
2014-07-20T10:25:43.618Z,23.3
2014-07-20T10:26:01.821Z,23.3
2014-07-20T10:26:20.008Z,23.3
2014-07-20T10:26:38.212Z,23.3
2014-07-20T10:26:56.400Z,23.3
2014-07-20T10:27:14.588Z,23.3
2014-07-20T10:27:32.791Z,23.3
2014-07-20T10:27:50.980Z,23.3
2014-07-20T10:28:09.183Z,23.3
2014-07-20T10:28:27.371Z,23.3
2014-07-20T10:28:45.576Z,23.3
2014-07-20T10:29:03.763Z,23.3
2014-07-20T10:29:21.967Z,23.3
2014-07-20T10:29:40.154Z,23.3
2014-07-20T10:29:58.344Z,23.3
2014-07-20T10:30:16.547Z,23.3
2014-07-20T10:30:34.734Z,23.3
2014-07-20T10:30:52.939Z,23.3
2014-07-20T10:31:11.127Z,23.3
2014-07-20T10:31:29.314Z,23.2
2014-07-20T10:31:47.519Z,23.2
2014-07-20T10:32:05.707Z,23.2
2014-07-20T10:32:23.910Z,23.2
2014-07-20T10:32:42.098Z,23.2
2014-07-20T10:33:00.303Z,23.2
2014-07-20T10:33:18.490Z,23.2
2014-07-20T10:33:36.678Z,23.2
2014-07-20T10:33:54.883Z,23.2
2014-07-20T10:34:13.070Z,23.2
2014-07-20T10:34:31.258Z,23.2
2014-07-20T10:34:49.463Z,23.2
2014-07-20T10:35:07.666Z,23.2
2014-07-20T10:35:25.854Z,23.2
2014-07-20T10:35:44.041Z,23.2
2014-07-20T10:36:02.246Z,23.2
2014-07-20T10:36:20.434Z,23.2
2014-07-20T10:36:38.637Z,23.2
2014-07-20T10:36:56.825Z,23.2
2014-07-20T10:37:15.013Z,23.2
2014-07-20T10:37:33.216Z,23.2
2014-07-20T10:37:51.406Z,23.2
2014-07-20T10:38:09.610Z,23.2
2014-07-20T10:38:27.797Z,23.2
2014-07-20T10:38:46.000Z,23.2
2014-07-20T10:39:04.189Z,23.2
2014-07-20T10:39:22.376Z,23.2
2014-07-20T10:39:40.579Z,23.2
2014-07-20T10:39:58.770Z,23.2
2014-07-20T10:40:16.973Z,23.2
2014-07-20T10:40:35.160Z,23.2
2014-07-20T10:40:53.365Z,23.2
2014-07-20T10:41:11.552Z,23.2
2014-07-20T10:41:29.740Z,23.2
2014-07-20T10:41:47.943Z,23.2
2014-07-20T10:42:06.133Z,23.2
2014-07-20T10:42:24.336Z,23.2
2014-07-20T10:42:42.524Z,23.2
2014-07-20T10:43:00.728Z,23.2
2014-07-20T10:43:18.915Z,23.2
2014-07-20T10:43:37.119Z,23.2
2014-07-20T10:43:55.308Z,23.2
2014-07-20T10:44:13.511Z,23.2
2014-07-20T10:44:31.699Z,23.2
2014-07-20T10:44:49.902Z,23.2
2014-07-20T10:45:08.091Z,23.2
2014-07-20T10:45:26.294Z,23.2
2014-07-20T10:45:44.482Z,23.2
2014-07-20T10:46:02.671Z,23.2
2014-07-20T10:46:20.875Z,23.2
2014-07-20T10:46:39.078Z,23.2
2014-07-20T10:46:57.267Z,23.2
2014-07-20T10:47:15.470Z,23.2
2014-07-20T10:47:33.658Z,23.2
2014-07-20T10:47:51.861Z,23.2
2014-07-20T10:48:10.050Z,23.2
2014-07-20T10:48:28.238Z,23.2
2014-07-20T10:48:46.441Z,23.2
2014-07-20T10:49:04.631Z,23.2
2014-07-20T10:49:22.834Z,23.2
2014-07-20T10:49:41.021Z,23.2
2014-07-20T10:49:59.224Z,23.2
2014-07-20T10:50:17.414Z,23.2
2014-07-20T10:50:35.617Z,23.2
2014-07-20T10:50:53.804Z,23.2
2014-07-20T10:51:12.010Z,23.2
2014-07-20T10:51:30.197Z,23.2
2014-07-20T10:51:48.400Z,23.2
2014-07-20T10:52:06.590Z,23.2
2014-07-20T10:52:24.793Z,23.2
2014-07-20T10:52:42.980Z,23.2
2014-07-20T10:53:01.183Z,23.2
2014-07-20T10:53:19.372Z,23.2
2014-07-20T10:53:37.575Z,23.2
2014-07-20T10:53:55.763Z,23.2
2014-07-20T10:54:13.969Z,23.2
2014-07-20T10:54:32.156Z,23.2
2014-07-20T10:54:50.344Z,23.2
2014-07-20T10:55:08.549Z,23.2
2014-07-20T10:55:26.736Z,23.2
2014-07-20T10:55:44.939Z,23.2
2014-07-20T10:56:03.128Z,23.2
2014-07-20T10:56:21.315Z,23.2
2014-07-20T10:56:39.519Z,23.2
2014-07-20T10:56:57.706Z,23.2
2014-07-20T10:57:15.897Z,23.2
2014-07-20T10:57:34.100Z,23.2
2014-07-20T10:57:52.303Z,23.2
2014-07-20T10:58:10.492Z,23.2
2014-07-20T10:58:28.695Z,23.2
2014-07-20T10:58:46.883Z,23.2
2014-07-20T10:59:05.071Z,23.2
2014-07-20T10:59:23.275Z,23.2
2014-07-20T10:59:41.462Z,23.2
2014-07-20T10:59:59.665Z,23.1
2014-07-20T11:00:17.870Z,23.1
2014-07-20T11:00:36.058Z,23.1
2014-07-20T11:00:54.261Z,23.2
2014-07-20T11:01:12.450Z,23.2
2014-07-20T11:01:30.654Z,23.2
2014-07-20T11:01:48.841Z,23.2
2014-07-20T11:02:07.046Z,23.2
2014-07-20T11:02:25.234Z,23.2
2014-07-20T11:02:43.437Z,23.2
2014-07-20T11:03:01.624Z,23.2
2014-07-20T11:03:19.829Z,23.2
2014-07-20T11:03:38.017Z,23.2
2014-07-20T11:03:56.204Z,23.2
2014-07-20T11:04:14.410Z,23.2
2014-07-20T11:04:32.613Z,23.2
2014-07-20T11:04:50.800Z,23.1
2014-07-20T11:05:08.990Z,23.1
2014-07-20T11:05:27.193Z,23.1
2014-07-20T11:05:45.396Z,23.1
2014-07-20T11:06:03.585Z,23.1
2014-07-20T11:06:21.789Z,23.2
2014-07-20T11:06:39.976Z,23.2
2014-07-20T11:06:58.179Z,23.2
2014-07-20T11:07:16.369Z,23.1
2014-07-20T11:07:34.572Z,23.1
2014-07-20T11:07:52.759Z,23.2
2014-07-20T11:08:10.964Z,23.1
2014-07-20T11:08:29.152Z,23.1
2014-07-20T11:08:47.339Z,23.1
2014-07-20T11:09:05.544Z,23.1
2014-07-20T11:09:23.731Z,23.1
2014-07-20T11:09:41.934Z,23.1
2014-07-20T11:10:00.122Z,23.1
2014-07-20T11:10:18.327Z,23.1
2014-07-20T11:10:36.514Z,23.1
2014-07-20T11:10:54.717Z,23.1
2014-07-20T11:11:12.908Z,23.1
2014-07-20T11:11:31.111Z,23.1
2014-07-20T11:11:49.299Z,23.1
2014-07-20T11:12:07.504Z,23.1
2014-07-20T11:12:25.691Z,23.1
2014-07-20T11:12:43.879Z,23.1
2014-07-20T11:13:02.082Z,23.1
2014-07-20T11:13:20.270Z,23.1
2014-07-20T11:13:38.473Z,23.1
2014-07-20T11:13:56.661Z,23.1
2014-07-20T11:14:14.866Z,23.1
2014-07-20T11:14:33.054Z,23.1
2014-07-20T11:14:51.257Z,23.1
2014-07-20T11:15:09.446Z,23.1
2014-07-20T11:15:27.649Z,23.1
2014-07-20T11:15:45.837Z,23.1
2014-07-20T11:16:04.040Z,23.1
2014-07-20T11:16:22.229Z,23.1
2014-07-20T11:16:40.433Z,23.1
2014-07-20T11:16:58.620Z,23.1
2014-07-20T11:17:16.825Z,23.1
2014-07-20T11:17:35.013Z,23.1
2014-07-20T11:17:53.216Z,23.1
2014-07-20T11:18:11.405Z,23.1
2014-07-20T11:18:29.608Z,23.1
2014-07-20T11:18:47.796Z,23.1
2014-07-20T11:19:05.983Z,23.1
2014-07-20T11:19:24.189Z,23.1
2014-07-20T11:19:42.376Z,23.1
2014-07-20T11:20:00.579Z,23.1
2014-07-20T11:20:18.769Z,23.1
2014-07-20T11:20:36.972Z,23.1
2014-07-20T11:20:55.159Z,23.1
2014-07-20T11:21:13.364Z,23.1
2014-07-20T11:21:31.552Z,23.1
2014-07-20T11:21:49.739Z,23.1
2014-07-20T11:22:07.943Z,23.1
2014-07-20T11:22:26.132Z,23.1
2014-07-20T11:22:44.335Z,23.1
2014-07-20T11:23:02.523Z,23.1
2014-07-20T11:23:20.727Z,23.1
2014-07-20T11:23:38.914Z,23.1
2014-07-20T11:23:57.102Z,23.1
2014-07-20T11:24:15.308Z,23.1
2014-07-20T11:24:33.495Z,23.1
2014-07-20T11:24:51.699Z,23.1
2014-07-20T11:25:09.902Z,23.1
2014-07-20T11:25:28.090Z,23.1
2014-07-20T11:25:46.293Z,23.1
2014-07-20T11:26:04.481Z,23.1
2014-07-20T11:26:22.671Z,23.1
2014-07-20T11:26:40.874Z,23.1
2014-07-20T11:26:59.062Z,23.1
2014-07-20T11:27:17.266Z,23.1
2014-07-20T11:27:35.454Z,23.1
2014-07-20T11:27:53.657Z,23.1
2014-07-20T11:28:11.844Z,23.3
2014-07-20T11:28:30.049Z,23.4
2014-07-20T11:28:48.237Z,23.8
2014-07-20T11:29:06.440Z,24.1
2014-07-20T11:29:24.630Z,24.1
2014-07-20T11:29:42.834Z,24.1
2014-07-20T11:30:01.021Z,24.1
2014-07-20T11:30:19.224Z,24
2014-07-20T11:30:37.413Z,24
2014-07-20T11:30:55.616Z,23.9
2014-07-20T11:31:13.803Z,23.9
2014-07-20T11:31:32.008Z,23.8
2014-07-20T11:31:50.196Z,23.8
2014-07-20T11:32:08.399Z,23.7
2014-07-20T11:32:26.589Z,23.7
2014-07-20T11:32:44.792Z,23.7
2014-07-20T11:33:02.979Z,23.6
2014-07-20T11:33:21.169Z,23.6
2014-07-20T11:33:39.372Z,23.6
2014-07-20T11:33:57.575Z,23.6
2014-07-20T11:34:15.762Z,23.6
2014-07-20T11:34:33.952Z,23.6
2014-07-20T11:34:52.155Z,23.6
2014-07-20T11:35:10.358Z,23.6
2014-07-20T11:35:28.548Z,23.6
2014-07-20T11:35:46.751Z,23.6
2014-07-20T11:36:04.938Z,23.6
2014-07-20T11:36:23.143Z,23.6
2014-07-20T11:36:41.331Z,23.6
2014-07-20T11:36:59.534Z,23.6
2014-07-20T11:37:17.722Z,23.6
2014-07-20T11:37:35.927Z,23.6
2014-07-20T11:37:54.114Z,23.6
2014-07-20T11:38:12.317Z,23.6
2014-07-20T11:38:30.538Z,23.6
2014-07-20T11:38:48.726Z,23.6
2014-07-20T11:39:06.929Z,23.6
2014-07-20T11:39:25.117Z,23.6
2014-07-20T11:39:43.320Z,23.6
2014-07-20T11:40:01.508Z,23.6
2014-07-20T11:40:19.711Z,23.6
2014-07-20T11:40:37.900Z,23.6
2014-07-20T11:40:56.104Z,23.6
2014-07-20T11:41:14.291Z,23.6
2014-07-20T11:41:32.497Z,23.6
2014-07-20T14:23:05.698Z,23.4
2014-07-20T14:23:23.885Z,23.4
2014-07-20T14:23:42.073Z,23.4
2014-07-20T14:24:00.276Z,23.4
2014-07-20T14:24:18.465Z,23.4
2014-07-20T14:24:36.653Z,23.3
2014-07-20T14:24:54.856Z,23.3
2014-07-20T14:25:13.046Z,23.4
2014-07-20T14:25:31.249Z,23.3
2014-07-20T14:25:49.436Z,23.3
2014-07-20T14:26:07.641Z,23.3
2014-07-20T14:26:25.829Z,23.3
2014-07-20T14:26:44.032Z,23.3
2014-07-20T14:27:02.219Z,23.3
2014-07-20T14:27:20.409Z,23.3
2014-07-20T14:27:38.612Z,23.3
2014-07-20T14:27:56.800Z,23.3
2014-07-20T14:28:15.004Z,23.3
2014-07-20T14:28:33.191Z,23.3
2014-07-20T14:28:51.379Z,23.3
2014-07-20T14:29:09.568Z,23.3
2014-07-20T14:29:27.771Z,23.4
2014-07-20T14:29:45.959Z,23.4
2014-07-20T14:30:04.148Z,23.3
2014-07-20T14:30:22.351Z,23.4
2014-07-20T14:30:40.539Z,23.4
2014-07-20T14:30:58.726Z,23.3
2014-07-20T14:31:16.916Z,23.3
2014-07-20T14:31:35.119Z,23.4
2014-07-20T14:31:53.307Z,23.3
2014-07-20T14:32:11.496Z,23.3
2014-07-20T14:32:29.699Z,23.4
2014-07-20T14:32:47.887Z,23.4
2014-07-20T14:33:06.092Z,23.4
2014-07-20T14:33:24.279Z,23.4
2014-07-20T14:33:42.482Z,23.4
2014-07-20T14:34:00.670Z,23.4
2014-07-20T14:34:18.906Z,23.4
2014-07-20T14:34:37.078Z,23.4
2014-07-20T14:34:55.281Z,23.4
2014-07-20T14:35:13.471Z,23.4
2014-07-20T14:35:31.658Z,23.4
2014-07-20T14:35:49.877Z,23.4
2014-07-20T14:36:08.051Z,23.4
2014-07-20T14:36:26.238Z,23.4
2014-07-20T14:36:44.442Z,23.4
2014-07-20T14:37:02.629Z,23.4
2014-07-20T14:37:20.819Z,23.4
2014-07-20T14:37:39.022Z,23.4
2014-07-20T14:37:57.225Z,23.4
2014-07-20T14:38:15.414Z,23.4
2014-07-20T14:38:33.617Z,23.4
2014-07-20T14:38:51.805Z,23.4
2014-07-20T14:39:10.010Z,23.4
2014-07-20T14:39:28.198Z,23.4
2014-07-20T14:39:46.385Z,23.4
2014-07-20T14:40:04.590Z,23.4
2014-07-20T14:40:22.934Z,23.4
2014-07-20T14:40:41.090Z,23.4
2014-07-20T14:40:59.278Z,23.5
2014-07-20T14:41:17.514Z,23.4
2014-07-20T14:41:35.717Z,23.5
2014-07-20T14:41:53.905Z,23.5
2014-07-20T14:42:12.094Z,23.5
2014-07-20T14:42:30.297Z,23.5
2014-07-20T14:42:48.485Z,23.5
2014-07-20T14:43:06.689Z,23.5
2014-07-20T14:43:24.908Z,23.5
2014-07-20T14:43:43.095Z,23.5
2014-07-20T14:44:01.298Z,23.5
2014-07-20T14:44:19.519Z,23.5
2014-07-20T14:44:37.722Z,23.4
2014-07-20T14:44:55.910Z,23.5
2014-07-20T14:45:14.130Z,23.5
2014-07-20T14:45:32.334Z,23.4
2014-07-20T14:45:50.537Z,23.5
2014-07-20T14:46:08.726Z,23.5
2014-07-20T14:46:26.914Z,23.5
2014-07-20T14:46:45.117Z,23.5
2014-07-20T14:47:03.304Z,23.5
2014-07-20T14:47:21.541Z,23.5
2014-07-20T14:47:39.759Z,23.5
2014-07-20T14:47:57.978Z,23.5
2014-07-20T14:48:16.293Z,23.5
2014-07-20T14:48:34.449Z,23.5
2014-07-20T14:48:52.746Z,23.5
2014-07-20T14:49:10.888Z,23.5
2014-07-20T14:49:29.123Z,23.5
2014-07-20T14:49:47.310Z,23.5
2014-07-20T14:50:05.513Z,23.5
2014-07-20T14:50:23.719Z,23.5
2014-07-20T14:50:41.906Z,23.5
2014-07-20T14:51:00.094Z,23.5
2014-07-20T14:51:18.299Z,23.5
2014-07-20T14:51:36.502Z,23.5
2014-07-20T14:51:54.689Z,23.5
2014-07-20T14:52:12.879Z,23.5
2014-07-20T14:52:31.066Z,23.5
2014-07-20T14:52:49.285Z,23.6
2014-07-20T14:53:07.488Z,23.5
2014-07-20T14:53:25.678Z,23.5
2014-07-20T14:53:43.881Z,23.5
2014-07-20T14:54:02.068Z,23.5
2014-07-20T14:54:20.273Z,23.5
2014-07-20T14:54:38.461Z,23.6
2014-07-20T14:54:56.727Z,23.6
2014-07-20T14:55:14.931Z,23.6
2014-07-20T14:55:55.884Z,23.6
2014-07-20T14:56:14.120Z,23.6
2014-07-20T14:56:32.401Z,23.6
2014-07-20T14:56:50.589Z,23.6
2014-07-20T14:58:00.169Z,23.6
2014-07-20T14:58:18.360Z,23.6
2014-07-20T14:58:36.547Z,23.6
2014-07-20T14:58:54.735Z,23.6
2014-07-20T14:59:12.938Z,23.6
2014-07-20T14:59:31.126Z,23.6
2014-07-20T14:59:49.314Z,23.6
2014-07-20T15:00:07.517Z,23.6
2014-07-20T15:00:25.706Z,23.6
2014-07-20T15:00:43.909Z,23.6
2014-07-20T15:01:02.097Z,23.6
2014-07-20T15:01:20.287Z,23.6
2014-07-20T15:01:38.491Z,23.6
2014-07-20T15:01:56.678Z,23.6
2014-07-20T15:02:14.881Z,23.6
2014-07-20T15:02:33.070Z,23.6
2014-07-20T15:02:51.273Z,23.6
2014-07-20T15:03:09.460Z,23.6
2014-07-20T15:03:27.650Z,23.6
2014-07-20T15:03:45.853Z,23.6
2014-07-20T15:04:04.040Z,23.6
2014-07-20T15:04:22.230Z,23.6
2014-07-20T15:05:08.121Z,23.6
2014-07-20T15:05:26.310Z,23.6
2014-07-20T15:05:44.498Z,23.6
2014-07-20T15:06:02.701Z,23.6
2014-07-20T15:06:20.906Z,23.6
2014-07-20T15:06:39.093Z,24.3
2014-07-20T15:06:57.296Z,25.6
2014-07-20T15:07:15.484Z,25.4
2014-07-20T15:07:33.688Z,25.1
2014-07-20T15:07:51.876Z,24.9
2014-07-20T15:08:10.079Z,24.7
2014-07-20T15:08:28.268Z,24.6
2014-07-20T15:08:46.471Z,24.4
2014-07-20T15:09:04.659Z,24.3
2014-07-20T15:09:22.849Z,24.2
2014-07-20T15:09:41.052Z,24.2
2014-07-20T15:09:59.240Z,24.1
2014-07-20T15:10:17.443Z,24.1
2014-07-20T15:10:35.648Z,24
2014-07-20T15:10:53.836Z,24
2014-07-20T15:11:12.023Z,23.9
2014-07-20T15:11:30.213Z,23.9
2014-07-20T15:11:48.416Z,23.9
2014-07-20T15:12:06.603Z,23.9
2014-07-20T15:12:24.807Z,23.9
2014-07-20T15:12:42.995Z,23.8
2014-07-20T15:13:01.182Z,23.8
2014-07-20T15:13:19.386Z,23.8
2014-07-20T15:13:37.592Z,23.8
2014-07-20T15:13:55.779Z,23.8
2014-07-20T15:14:13.967Z,23.8
2014-07-20T15:14:32.172Z,23.8
2014-07-20T15:14:50.375Z,23.8
2014-07-20T15:15:08.562Z,23.8
2014-07-20T15:15:26.768Z,23.8
2014-07-20T15:15:44.955Z,23.7
2014-07-20T15:16:03.158Z,23.7
2014-07-20T15:16:21.346Z,23.7
2014-07-20T15:16:52.675Z,23.7
2014-07-20T15:17:10.862Z,23.7
2014-07-20T15:17:29.067Z,23.7
2014-07-20T15:17:47.255Z,23.7
2014-07-20T15:18:05.458Z,23.7
2014-07-20T15:18:23.646Z,23.7
2014-07-20T15:18:41.852Z,23.7
2014-07-20T15:19:00.039Z,23.7
2014-07-20T15:19:18.242Z,23.7
2014-07-20T15:19:36.431Z,23.7
2014-07-20T15:19:54.634Z,23.7
2014-07-20T15:20:12.821Z,23.6
2014-07-20T15:20:31.027Z,23.6
2014-07-20T15:20:49.214Z,23.6
2014-07-20T15:21:07.417Z,23.6
2014-07-20T15:21:25.605Z,23.6
2014-07-20T15:21:43.810Z,23.6
2014-07-20T15:22:01.997Z,23.6
2014-07-20T15:22:20.216Z,23.6
2014-07-20T15:22:38.421Z,23.6
2014-07-20T15:22:56.609Z,23.6
2014-07-20T15:23:14.796Z,23.6
2014-07-20T15:23:33.001Z,23.6
2014-07-20T15:23:51.204Z,23.6
2014-07-20T15:24:09.392Z,23.6
2014-07-20T15:24:27.579Z,23.6
2014-07-20T15:24:45.785Z,23.6
2014-07-20T15:25:03.988Z,23.6
2014-07-20T15:25:22.191Z,23.5
2014-07-20T15:25:40.396Z,23.5
2014-07-20T15:25:58.599Z,23.5
2014-07-20T15:26:16.787Z,23.5
2014-07-20T15:26:34.992Z,23.5
2014-07-20T15:26:53.195Z,23.5
2014-07-20T15:27:11.382Z,23.5
2014-07-20T15:27:29.585Z,23.5
2014-07-20T15:27:47.775Z,23.5
2014-07-20T15:28:05.978Z,23.5
2014-07-20T15:28:24.166Z,23.5
2014-07-20T15:28:42.371Z,23.5
2014-07-20T15:29:00.558Z,23.5
2014-07-20T15:29:18.761Z,23.5
2014-07-20T15:29:36.951Z,23.5
2014-07-20T15:29:55.154Z,23.5
2014-07-20T15:30:13.341Z,23.5
2014-07-20T15:30:31.545Z,23.5
2014-07-20T15:30:49.750Z,23.5
2014-07-20T15:31:07.937Z,23.5
2014-07-20T15:31:26.140Z,23.5
2014-07-20T15:31:44.330Z,23.5
2014-07-20T15:32:02.533Z,23.5
2014-07-20T15:32:20.720Z,23.5
2014-07-20T15:32:38.925Z,23.5
2014-07-20T15:32:57.112Z,23.5
2014-07-20T15:33:15.300Z,23.5
2014-07-20T15:33:33.503Z,23.5
2014-07-20T15:33:51.708Z,23.5
2014-07-20T15:34:09.895Z,23.5
2014-07-20T15:34:28.098Z,23.4
2014-07-20T15:34:46.288Z,23.4
2014-07-20T15:35:04.475Z,23.5
2014-07-20T15:35:22.679Z,23.4
2014-07-20T15:35:40.882Z,23.4
2014-07-20T15:35:59.071Z,23.4
2014-07-20T15:36:17.259Z,23.4
2014-07-20T15:36:35.462Z,23.4
2014-07-20T15:36:53.652Z,23.4
2014-07-20T15:37:11.855Z,23.4
2014-07-20T15:37:30.043Z,23.4
2014-07-20T15:37:48.248Z,23.4
2014-07-20T15:38:06.436Z,23.4
2014-07-20T15:38:24.623Z,23.4
2014-07-20T15:38:42.826Z,23.4
2014-07-20T15:39:01.015Z,23.4
2014-07-20T15:39:19.218Z,23.4
2014-07-20T15:39:37.405Z,23.4
2014-07-20T15:39:55.610Z,23.4
2014-07-20T15:40:13.798Z,23.4
2014-07-20T15:40:31.985Z,23.4
2014-07-20T15:40:50.191Z,23.4
2014-07-20T15:41:08.394Z,23.4
2014-07-20T15:41:26.581Z,23.4
2014-07-20T15:41:44.784Z,23.4
2014-07-20T15:42:02.974Z,23.4
2014-07-20T15:42:21.161Z,23.4
2014-07-20T15:42:39.364Z,23.4
2014-07-20T15:42:57.570Z,23.4
2014-07-20T15:43:15.757Z,23.4
2014-07-20T15:43:33.945Z,23.4
2014-07-20T15:43:52.149Z,23.4
2014-07-20T15:44:10.336Z,23.4
2014-07-20T15:44:28.539Z,23.4
2014-07-20T15:44:46.727Z,23.4
2014-07-20T15:45:04.933Z,23.4
2014-07-20T15:45:23.120Z,23.4
2014-07-20T15:45:41.324Z,23.4
2014-07-20T15:45:59.513Z,23.4
2014-07-20T15:46:17.701Z,23.4
2014-07-20T15:46:35.904Z,23.4
2014-07-20T15:46:54.109Z,23.3
2014-07-20T15:47:12.296Z,23.3
2014-07-20T15:47:30.499Z,23.3
2014-07-20T15:47:48.687Z,23.3
2014-07-20T15:48:06.875Z,23.4
2014-07-20T15:48:25.079Z,23.3
2014-07-20T15:48:43.266Z,23.4
2014-07-20T15:49:01.471Z,23.3
2014-07-20T15:49:19.674Z,23.3
2014-07-20T15:49:37.862Z,23.3
2014-07-20T15:49:56.068Z,23.3
2014-07-20T15:50:14.255Z,23.3
2014-07-20T15:50:32.459Z,23.3
2014-07-20T15:50:50.646Z,23.3
2014-07-20T15:51:08.850Z,23.3
2014-07-20T15:51:27.038Z,23.3
2014-07-20T15:51:45.241Z,23.3
2014-07-20T15:52:03.430Z,23.3
2014-07-20T15:52:21.633Z,23.3
2014-07-20T15:52:39.821Z,23.3
2014-07-20T15:52:58.011Z,23.3
2014-07-20T15:53:16.215Z,23.3
2014-07-20T15:53:34.402Z,23.3
2014-07-20T15:53:52.590Z,23.3
2014-07-20T15:54:10.794Z,23.3
2014-07-20T15:54:28.981Z,23.3
2014-07-20T15:54:47.169Z,23.3
2014-07-20T15:55:05.374Z,23.3
2014-07-20T15:55:23.561Z,23.3
2014-07-20T15:55:41.749Z,23.3
2014-07-20T15:55:59.954Z,23.3
2014-07-20T15:56:18.141Z,23.3
2014-07-20T15:56:36.329Z,23.3
2014-07-20T15:56:54.532Z,23.3
2014-07-20T15:57:12.722Z,23.3
2014-07-20T15:57:30.909Z,23.3
2014-07-20T15:57:49.112Z,23.3
2014-07-20T15:58:07.303Z,23.3
2014-07-20T15:58:25.506Z,23.3
2014-07-20T15:58:43.693Z,23.3
2014-07-20T15:59:01.882Z,23.3
2014-07-20T15:59:20.085Z,23.3
2014-07-20T15:59:38.272Z,23.3
2014-07-20T15:59:56.476Z,23.3
2014-07-20T16:00:14.681Z,23.3
2014-07-20T16:00:32.868Z,23.3
2014-07-20T16:00:51.071Z,23.3
2014-07-20T16:01:09.261Z,23.3
2014-07-20T16:01:27.464Z,23.3
2014-07-20T16:01:45.651Z,23.3
2014-07-20T16:02:03.840Z,23.3
2014-07-20T16:02:22.043Z,23.3
2014-07-20T16:02:40.231Z,23.3
2014-07-20T16:02:58.434Z,23.3
2014-07-20T16:03:16.624Z,23.3
2014-07-20T16:03:34.827Z,23.3
2014-07-20T16:03:53.015Z,23.3
2014-07-20T16:04:11.220Z,23.3
2014-07-20T16:04:29.407Z,23.3
2014-07-20T16:04:47.595Z,23.3
2014-07-20T16:05:05.799Z,23.3